sensor_id;sensor_type;location;lat;lon;timestamp;temperature;humidity
59148;DHT22;44930;52.878;6.168;2022-12-10T00:02:46;-0.50;99.90
59148;DHT22;44930;52.878;6.168;2022-12-10T00:10:04;-0.60;99.90
59148;DHT22;44930;52.878;6.168;2022-12-10T00:22:14;-0.60;99.90
59148;DHT22;44930;52.878;6.168;2022-12-10T00:31:57;-0.60;99.90
59148;DHT22;44930;52.878;6.168;2022-12-10T00:39:18;-0.60;99.90
59148;DHT22;44930;52.878;6.168;2022-12-10T00:56:24;-0.50;99.90
59148;DHT22;44930;52.878;6.168;2022-12-10T00:58:51;-0.70;99.90
59148;DHT22;44930;52.878;6.168;2022-12-10T01:03:45;-0.80;99.90
59148;DHT22;44930;52.878;6.168;2022-12-10T01:06:17;-0.80;99.90
59148;DHT22;44930;52.878;6.168;2022-12-10T01:18:31;-0.80;99.90
59148;DHT22;44930;52.878;6.168;2022-12-10T01:55:37;-1.20;99.90
59148;DHT22;44930;52.878;6.168;2022-12-10T02:02:53;-1.00;99.90
59148;DHT22;44930;52.878;6.168;2022-12-10T02:05:32;-1.10;99.90
59148;DHT22;44930;52.878;6.168;2022-12-10T02:08:15;-1.40;99.90
59148;DHT22;44930;52.878;6.168;2022-12-10T02:13:37;-0.80;99.90
59148;DHT22;44930;52.878;6.168;2022-12-10T02:16:53;-1.00;99.90
59148;DHT22;44930;52.878;6.168;2022-12-10T02:19:45;-1.10;99.90
59148;DHT22;44930;52.878;6.168;2022-12-10T02:22:17;-1.30;99.90
59148;DHT22;44930;52.878;6.168;2022-12-10T02:24:45;-1.00;99.90
59148;DHT22;44930;52.878;6.168;2022-12-10T02:27:33;-1.20;99.90
59148;DHT22;44930;52.878;6.168;2022-12-10T02:35:00;-1.40;99.90
59148;DHT22;44930;52.878;6.168;2022-12-10T02:37:34;-1.10;99.90
59148;DHT22;44930;52.878;6.168;2022-12-10T02:54:48;-1.30;99.90
59148;DHT22;44930;52.878;6.168;2022-12-10T03:07:32;-1.30;99.90
59148;DHT22;44930;52.878;6.168;2022-12-10T03:14:59;-0.80;99.90
59148;DHT22;44930;52.878;6.168;2022-12-10T03:19:55;-1.40;99.90
59148;DHT22;44930;52.878;6.168;2022-12-10T03:27:15;-1.20;99.90
59148;DHT22;44930;52.878;6.168;2022-12-10T03:37:04;-1.30;99.90
59148;DHT22;44930;52.878;6.168;2022-12-10T03:39:30;-1.20;99.90
59148;DHT22;44930;52.878;6.168;2022-12-10T04:16:31;-1.30;99.90
59148;DHT22;44930;52.878;6.168;2022-12-10T04:26:57;-0.80;99.90
59148;DHT22;44930;52.878;6.168;2022-12-10T04:31:51;-1.00;99.90
59148;DHT22;44930;52.878;6.168;2022-12-10T04:39:09;-1.00;99.90
59148;DHT22;44930;52.878;6.168;2022-12-10T05:01:07;-0.90;99.90
59148;DHT22;44930;52.878;6.168;2022-12-10T05:06:08;-1.00;99.90
59148;DHT22;44930;52.878;6.168;2022-12-10T05:08:35;-0.90;99.90
59148;DHT22;44930;52.878;6.168;2022-12-10T05:11:02;-1.20;99.90
59148;DHT22;44930;52.878;6.168;2022-12-10T05:15:54;-1.10;99.90
59148;DHT22;44930;52.878;6.168;2022-12-10T05:26:10;-1.10;99.90
59148;DHT22;44930;52.878;6.168;2022-12-10T05:28:41;-1.10;99.90
59148;DHT22;44930;52.878;6.168;2022-12-10T05:36:14;-1.20;99.90
59148;DHT22;44930;52.878;6.168;2022-12-10T05:46:02;-0.50;99.90
59148;DHT22;44930;52.878;6.168;2022-12-10T06:00:41;-1.10;99.90
59148;DHT22;44930;52.878;6.168;2022-12-10T06:05:38;-1.10;99.90
59148;DHT22;44930;52.878;6.168;2022-12-10T06:20:14;-0.90;99.90
59148;DHT22;44930;52.878;6.168;2022-12-10T06:25:06;-0.80;99.90
59148;DHT22;44930;52.878;6.168;2022-12-10T06:27:32;-0.70;99.90
59148;DHT22;44930;52.878;6.168;2022-12-10T06:59:09;-0.90;99.90
59148;DHT22;44930;52.878;6.168;2022-12-10T07:16:20;-0.90;99.90
59148;DHT22;44930;52.878;6.168;2022-12-10T07:36:06;-0.40;99.90
59148;DHT22;44930;52.878;6.168;2022-12-10T07:41:05;-1.10;99.90
59148;DHT22;44930;52.878;6.168;2022-12-10T07:43:33;-1.00;99.90
59148;DHT22;44930;52.878;6.168;2022-12-10T07:46:07;-1.20;99.90
59148;DHT22;44930;52.878;6.168;2022-12-10T07:48:34;-0.80;99.90
59148;DHT22;44930;52.878;6.168;2022-12-10T08:10:28;-0.70;99.90
59148;DHT22;44930;52.878;6.168;2022-12-10T08:34:49;-0.50;99.90
59148;DHT22;44930;52.878;6.168;2022-12-10T08:42:06;-0.70;99.90
59148;DHT22;44930;52.878;6.168;2022-12-10T09:11:22;-0.40;99.90
59148;DHT22;44930;52.878;6.168;2022-12-10T09:16:14;-0.70;99.90
59148;DHT22;44930;52.878;6.168;2022-12-10T09:18:40;-0.60;99.90
59148;DHT22;44930;52.878;6.168;2022-12-10T09:21:07;-0.90;99.90
59148;DHT22;44930;52.878;6.168;2022-12-10T09:25:59;-0.60;99.90
59148;DHT22;44930;52.878;6.168;2022-12-10T09:28:24;-0.60;99.90
59148;DHT22;44930;52.878;6.168;2022-12-10T09:30:58;-0.70;99.90
59148;DHT22;44930;52.878;6.168;2022-12-10T09:38:16;-0.40;99.90
59148;DHT22;44930;52.878;6.168;2022-12-10T09:43:59;-0.40;99.90
59148;DHT22;44930;52.878;6.168;2022-12-10T09:46:48;-0.40;99.90
59148;DHT22;44930;52.878;6.168;2022-12-10T09:51:50;-0.40;99.90
59148;DHT22;44930;52.878;6.168;2022-12-10T09:54:29;-0.30;99.90
59148;DHT22;44930;52.878;6.168;2022-12-10T09:56:57;-0.10;99.90
59148;DHT22;44930;52.878;6.168;2022-12-10T09:59:30;-0.50;99.90
59148;DHT22;44930;52.878;6.168;2022-12-10T10:02:11;-0.40;99.90
59148;DHT22;44930;52.878;6.168;2022-12-10T10:07:19;-0.30;99.90
59148;DHT22;44930;52.878;6.168;2022-12-10T10:09:46;-0.30;99.90
59148;DHT22;44930;52.878;6.168;2022-12-10T10:12:15;-0.20;99.90
59148;DHT22;44930;52.878;6.168;2022-12-10T10:14:43;-0.30;99.90
59148;DHT22;44930;52.878;6.168;2022-12-10T10:17:21;-0.20;99.90
59148;DHT22;44930;52.878;6.168;2022-12-10T10:22:15;-0.50;99.90
59148;DHT22;44930;52.878;6.168;2022-12-10T10:24:43;-0.40;99.90
59148;DHT22;44930;52.878;6.168;2022-12-10T10:27:15;-0.30;99.90
59148;DHT22;44930;52.878;6.168;2022-12-10T10:29:43;-0.20;99.90
59148;DHT22;44930;52.878;6.168;2022-12-10T10:34:42;-0.20;99.90
59148;DHT22;44930;52.878;6.168;2022-12-10T10:47:30;-0.10;99.90
59148;DHT22;44930;52.878;6.168;2022-12-10T10:49:56;-0.20;99.90
59148;DHT22;44930;52.878;6.168;2022-12-10T10:52:22;-0.20;99.90
59148;DHT22;44930;52.878;6.168;2022-12-10T10:57:34;-0.50;99.90
59148;DHT22;44930;52.878;6.168;2022-12-10T11:05:26;-0.10;99.90
59148;DHT22;44930;52.878;6.168;2022-12-10T11:08:04;0.00;99.90
59148;DHT22;44930;52.878;6.168;2022-12-10T11:15:39;-0.10;99.90
59148;DHT22;44930;52.878;6.168;2022-12-10T11:18:34;0.00;99.90
59148;DHT22;44930;52.878;6.168;2022-12-10T11:21:08;0.30;99.90
59148;DHT22;44930;52.878;6.168;2022-12-10T11:23:43;0.10;99.90
59148;DHT22;44930;52.878;6.168;2022-12-10T11:26:21;0.00;99.90
59148;DHT22;44930;52.878;6.168;2022-12-10T11:37:03;0.00;99.90
59148;DHT22;44930;52.878;6.168;2022-12-10T11:42:52;-0.10;99.90
59148;DHT22;44930;52.878;6.168;2022-12-10T11:53:08;0.00;99.90
59148;DHT22;44930;52.878;6.168;2022-12-10T12:04:40;0.00;99.90
59148;DHT22;44930;52.878;6.168;2022-12-10T12:09:56;0.40;99.90
59148;DHT22;44930;52.878;6.168;2022-12-10T12:19:53;0.20;99.90
59148;DHT22;44930;52.878;6.168;2022-12-10T12:22:28;0.50;99.90
59148;DHT22;44930;52.878;6.168;2022-12-10T12:28:11;0.40;99.90
59148;DHT22;44930;52.878;6.168;2022-12-10T12:30:42;0.20;99.90
59148;DHT22;44930;52.878;6.168;2022-12-10T12:33:19;0.20;99.90
59148;DHT22;44930;52.878;6.168;2022-12-10T12:36:04;0.20;99.90
59148;DHT22;44930;52.878;6.168;2022-12-10T12:38:52;0.40;99.90
59148;DHT22;44930;52.878;6.168;2022-12-10T12:44:29;0.00;99.90
59148;DHT22;44930;52.878;6.168;2022-12-10T12:47:02;0.40;99.90
59148;DHT22;44930;52.878;6.168;2022-12-10T12:49:35;0.60;99.90
59148;DHT22;44930;52.878;6.168;2022-12-10T12:54:37;0.60;99.90
59148;DHT22;44930;52.878;6.168;2022-12-10T13:05:20;0.20;99.90
59148;DHT22;44930;52.878;6.168;2022-12-10T13:11:33;0.60;99.90
59148;DHT22;44930;52.878;6.168;2022-12-10T13:27:18;0.10;99.90
59148;DHT22;44930;52.878;6.168;2022-12-10T13:39:53;0.40;99.90
59148;DHT22;44930;52.878;6.168;2022-12-10T13:42:27;0.20;99.90
59148;DHT22;44930;52.878;6.168;2022-12-10T13:47:55;-0.10;99.90
59148;DHT22;44930;52.878;6.168;2022-12-10T13:50:55;0.20;99.90
59148;DHT22;44930;52.878;6.168;2022-12-10T13:53:44;0.20;99.90
59148;DHT22;44930;52.878;6.168;2022-12-10T13:56:26;-0.30;99.90
59148;DHT22;44930;52.878;6.168;2022-12-10T13:59:10;0.10;99.90
59148;DHT22;44930;52.878;6.168;2022-12-10T14:01:51;0.00;99.90
59148;DHT22;44930;52.878;6.168;2022-12-10T14:04:44;0.20;99.90
59148;DHT22;44930;52.878;6.168;2022-12-10T14:07:12;0.20;99.90
59148;DHT22;44930;52.878;6.168;2022-12-10T14:09:48;0.00;99.90
59148;DHT22;44930;52.878;6.168;2022-12-10T14:12:18;0.00;99.90
59148;DHT22;44930;52.878;6.168;2022-12-10T14:14:55;0.20;99.90
59148;DHT22;44930;52.878;6.168;2022-12-10T14:19:53;0.10;99.90
59148;DHT22;44930;52.878;6.168;2022-12-10T14:22:30;0.10;99.90
59148;DHT22;44930;52.878;6.168;2022-12-10T14:25:00;0.20;99.90
59148;DHT22;44930;52.878;6.168;2022-12-10T14:27:27;0.10;99.90
59148;DHT22;44930;52.878;6.168;2022-12-10T14:32:29;0.00;99.90
59148;DHT22;44930;52.878;6.168;2022-12-10T14:34:58;0.10;99.90
59148;DHT22;44930;52.878;6.168;2022-12-10T14:39:52;0.20;99.90
59148;DHT22;44930;52.878;6.168;2022-12-10T14:42:18;0.20;99.90
59148;DHT22;44930;52.878;6.168;2022-12-10T14:44:45;0.20;99.90
59148;DHT22;44930;52.878;6.168;2022-12-10T14:47:19;0.40;99.90
59148;DHT22;44930;52.878;6.168;2022-12-10T14:52:21;0.10;99.90
59148;DHT22;44930;52.878;6.168;2022-12-10T14:54:47;0.10;99.90
59148;DHT22;44930;52.878;6.168;2022-12-10T14:57:29;0.10;99.90
59148;DHT22;44930;52.878;6.168;2022-12-10T15:00:19;0.40;99.90
59148;DHT22;44930;52.878;6.168;2022-12-10T15:02:48;0.10;99.90
59148;DHT22;44930;52.878;6.168;2022-12-10T15:05:29;0.20;99.90
59148;DHT22;44930;52.878;6.168;2022-12-10T15:08:07;0.10;99.90
59148;DHT22;44930;52.878;6.168;2022-12-10T15:10:52;0.00;99.90
59148;DHT22;44930;52.878;6.168;2022-12-10T15:13:34;0.00;99.90
59148;DHT22;44930;52.878;6.168;2022-12-10T15:18:37;0.50;99.90
59148;DHT22;44930;52.878;6.168;2022-12-10T15:21:14;0.20;99.90
59148;DHT22;44930;52.878;6.168;2022-12-10T15:23:43;0.00;99.90
59148;DHT22;44930;52.878;6.168;2022-12-10T15:28:45;0.10;99.90
59148;DHT22;44930;52.878;6.168;2022-12-10T15:33:59;0.10;99.90
59148;DHT22;44930;52.878;6.168;2022-12-10T15:36:39;-0.10;99.90
59148;DHT22;44930;52.878;6.168;2022-12-10T15:39:27;0.50;99.90
59148;DHT22;44930;52.878;6.168;2022-12-10T15:42:01;-0.30;99.90
59148;DHT22;44930;52.878;6.168;2022-12-10T15:44:36;0.10;99.90
59148;DHT22;44930;52.878;6.168;2022-12-10T15:54:41;0.40;99.90
59148;DHT22;44930;52.878;6.168;2022-12-10T15:59:46;-0.10;99.90
59148;DHT22;44930;52.878;6.168;2022-12-10T16:02:36;0.10;99.90
59148;DHT22;44930;52.878;6.168;2022-12-10T16:12:29;0.00;99.90
59148;DHT22;44930;52.878;6.168;2022-12-10T16:14:56;0.10;99.90
59148;DHT22;44930;52.878;6.168;2022-12-10T16:17:28;-0.10;99.90
59148;DHT22;44930;52.878;6.168;2022-12-10T16:27:16;0.00;99.90
59148;DHT22;44930;52.878;6.168;2022-12-10T16:32:11;0.00;99.90
59148;DHT22;44930;52.878;6.168;2022-12-10T16:34:38;0.00;99.90
59148;DHT22;44930;52.878;6.168;2022-12-10T16:44:23;-0.10;99.90
59148;DHT22;44930;52.878;6.168;2022-12-10T16:51:41;0.00;99.90
59148;DHT22;44930;52.878;6.168;2022-12-10T16:56:39;-0.10;99.90
59148;DHT22;44930;52.878;6.168;2022-12-10T16:59:04;-0.10;99.90
59148;DHT22;44930;52.878;6.168;2022-12-10T17:01:30;-0.20;99.90
59148;DHT22;44930;52.878;6.168;2022-12-10T17:03:57;0.10;99.90
59148;DHT22;44930;52.878;6.168;2022-12-10T17:08:49;-0.10;99.90
59148;DHT22;44930;52.878;6.168;2022-12-10T17:11:25;-0.30;99.90
59148;DHT22;44930;52.878;6.168;2022-12-10T17:14:21;0.00;99.90
59148;DHT22;44930;52.878;6.168;2022-12-10T17:16:48;0.30;99.90
59148;DHT22;44930;52.878;6.168;2022-12-10T17:24:06;-0.10;99.90
59148;DHT22;44930;52.878;6.168;2022-12-10T17:26:34;0.10;99.90
59148;DHT22;44930;52.878;6.168;2022-12-10T17:29:04;0.10;99.90
59148;DHT22;44930;52.878;6.168;2022-12-10T17:33:57;-0.10;99.90
59148;DHT22;44930;52.878;6.168;2022-12-10T17:36:22;0.00;99.90
59148;DHT22;44930;52.878;6.168;2022-12-10T17:38:48;-0.10;99.90
59148;DHT22;44930;52.878;6.168;2022-12-10T17:46:10;-0.30;99.90
59148;DHT22;44930;52.878;6.168;2022-12-10T17:55:58;-0.30;99.90
59148;DHT22;44930;52.878;6.168;2022-12-10T18:03:17;-0.20;99.90
59148;DHT22;44930;52.878;6.168;2022-12-10T18:05:43;-0.10;99.90
59148;DHT22;44930;52.878;6.168;2022-12-10T18:13:05;-0.20;99.90
59148;DHT22;44930;52.878;6.168;2022-12-10T18:17:58;-0.40;99.90
59148;DHT22;44930;52.878;6.168;2022-12-10T18:22:59;0.00;99.90
59148;DHT22;44930;52.878;6.168;2022-12-10T18:32:48;-0.20;99.90
59148;DHT22;44930;52.878;6.168;2022-12-10T18:40:10;-0.30;99.90
59148;DHT22;44930;52.878;6.168;2022-12-10T19:04:32;-0.30;99.90
59148;DHT22;44930;52.878;6.168;2022-12-10T19:14:17;0.00;99.90
59148;DHT22;44930;52.878;6.168;2022-12-10T19:19:14;-0.60;99.90
59148;DHT22;44930;52.878;6.168;2022-12-10T19:24:06;-0.30;99.90
59148;DHT22;44930;52.878;6.168;2022-12-10T19:29:15;-0.30;99.90
59148;DHT22;44930;52.878;6.168;2022-12-10T19:31:41;-0.30;99.90
59148;DHT22;44930;52.878;6.168;2022-12-10T19:39:00;-0.40;99.90
59148;DHT22;44930;52.878;6.168;2022-12-10T19:43:52;-0.40;99.90
59148;DHT22;44930;52.878;6.168;2022-12-10T19:46:25;-0.40;99.90
59148;DHT22;44930;52.878;6.168;2022-12-10T19:48:52;-0.60;99.90
59148;DHT22;44930;52.878;6.168;2022-12-10T19:53:45;-0.20;99.90
59148;DHT22;44930;52.878;6.168;2022-12-10T20:01:11;-0.30;99.90
59148;DHT22;44930;52.878;6.168;2022-12-10T20:15:48;-0.40;99.90
59148;DHT22;44930;52.878;6.168;2022-12-10T20:23:06;-0.30;99.90
59148;DHT22;44930;52.878;6.168;2022-12-10T20:30:26;-0.10;99.90
59148;DHT22;44930;52.878;6.168;2022-12-10T20:42:39;-0.40;99.90
59148;DHT22;44930;52.878;6.168;2022-12-10T20:45:05;-0.50;99.90
59148;DHT22;44930;52.878;6.168;2022-12-10T20:52:23;-0.50;99.90
59148;DHT22;44930;52.878;6.168;2022-12-10T21:19:10;-0.60;99.90
59148;DHT22;44930;52.878;6.168;2022-12-10T21:24:01;-0.30;99.90
59148;DHT22;44930;52.878;6.168;2022-12-10T21:38:42;-0.30;99.90
59148;DHT22;44930;52.878;6.168;2022-12-10T21:41:09;-0.30;99.90
59148;DHT22;44930;52.878;6.168;2022-12-10T21:53:39;-0.40;99.90
59148;DHT22;44930;52.878;6.168;2022-12-10T21:56:06;-0.20;99.90
59148;DHT22;44930;52.878;6.168;2022-12-10T22:00:58;-0.30;99.90
59148;DHT22;44930;52.878;6.168;2022-12-10T22:05:50;0.00;99.90
59148;DHT22;44930;52.878;6.168;2022-12-10T22:10:42;-0.10;99.90
59148;DHT22;44930;52.878;6.168;2022-12-10T22:13:07;0.00;99.90
59148;DHT22;44930;52.878;6.168;2022-12-10T22:15:39;0.00;99.90
59148;DHT22;44930;52.878;6.168;2022-12-10T22:18:05;0.00;99.90
59148;DHT22;44930;52.878;6.168;2022-12-10T22:20:33;0.00;99.90
59148;DHT22;44930;52.878;6.168;2022-12-10T22:32:42;0.00;99.90
59148;DHT22;44930;52.878;6.168;2022-12-10T22:35:10;0.00;99.90
59148;DHT22;44930;52.878;6.168;2022-12-10T22:37:36;-0.10;99.90
59148;DHT22;44930;52.878;6.168;2022-12-10T22:40:04;0.00;99.90
59148;DHT22;44930;52.878;6.168;2022-12-10T22:42:36;0.00;99.90
59148;DHT22;44930;52.878;6.168;2022-12-10T22:50:00;0.10;99.90
59148;DHT22;44930;52.878;6.168;2022-12-10T22:54:54;0.00;99.90
59148;DHT22;44930;52.878;6.168;2022-12-10T22:57:20;0.00;99.90
59148;DHT22;44930;52.878;6.168;2022-12-10T22:59:45;0.00;99.90
59148;DHT22;44930;52.878;6.168;2022-12-10T23:02:11;0.10;99.90
59148;DHT22;44930;52.878;6.168;2022-12-10T23:07:03;0.10;99.90
59148;DHT22;44930;52.878;6.168;2022-12-10T23:09:29;0.20;99.90
59148;DHT22;44930;52.878;6.168;2022-12-10T23:14:39;0.00;99.90
59148;DHT22;44930;52.878;6.168;2022-12-10T23:19:31;0.10;99.90
59148;DHT22;44930;52.878;6.168;2022-12-10T23:29:15;0.20;99.90
59148;DHT22;44930;52.878;6.168;2022-12-10T23:34:07;0.20;99.90
59148;DHT22;44930;52.878;6.168;2022-12-10T23:38:59;0.30;99.90
59148;DHT22;44930;52.878;6.168;2022-12-10T23:41:24;0.10;99.90
59148;DHT22;44930;52.878;6.168;2022-12-10T23:43:50;0.20;99.90
59148;DHT22;44930;52.878;6.168;2022-12-10T23:46:16;0.30;99.90
59148;DHT22;44930;52.878;6.168;2022-12-10T23:48:41;0.20;99.90
59148;DHT22;44930;52.878;6.168;2022-12-10T23:51:07;0.20;99.90
59148;DHT22;44930;52.878;6.168;2022-12-10T23:56:00;0.10;99.90
